Minneapolis, Minnesota
Traffic Map
Current Weather Conditions
Minneapolis, Minnesota
Overcast Light Rain
Overcast
36°
Feels Like: 29°
Wind Chill: 29° Ceiling: 500
Heat Index: 36° Visibility: 2mi
Dew Point: 34° Wind: 9mph
Humidity: 93% Direction: 150° (SSE)
Pressure: 29.75in Gusts: 0mph
Raw Report DataKMSP 212053Z 15008KT 2SM -RA BR OVC005 02/01 A2975 RMK AO2 SFC VIS 2 1/2 RAE17B38SNB1956E1958 SLP084 P0002 60005 T00220011 56009 $
Traffic Incident Summary
Active as of:
Severity:
Category:
InformationThere was an issue retrieving the traffic information for this location. Please try a different location or try again shortly.
Advertisements
Track Severe Weather on mobile